MZU weather

Muzaffarpur Airport
Bihar, India

Public forecast

Using degrees Celsius for public forecast. Weather courtesy of forecast.io.

METAR (pilot weather report)

Closest report is Lok Nayak Jayaprakash Airport, 34.0 nm (62.9 km) SSW. Retrieved 2019/07/20 08:30 UTC (13 minutes ago):

VEPT 200830Z 11006KT 5000 HZ SCT018 SCT025 36/25 Q1001 NOSIG

TAF (pilot weather forecast)

Closest forecast is Lok Nayak Jayaprakash Airport, 34.0 nm (62.9 km) SSW. Retrieved 2019/07/20 06:27 UTC (2 hours ago):

TAF VEPT 200500Z 2006/2112 07005KT 5000 HZ FEW020 SCT025 BECMG 2008/2010 4000 HZ TSRA SCT018 SCT025 FEW030CB BKN100 BECMG 2013/2015 3500 HZ FEW020 SCT100 BECMG 2023/2101 3000 HZ BECMG 2104/2106 4000 HZ BECMG 2110/2112 5000 HZ